Latest Weather Observations for Cabramurra

IDN60801

Issued at 12:32 am EST Monday 1 May 2017 (issued every 30 minutes, with the page automatically refreshed every 10 minutes)

About weather observations | Map of weather stations | Latest weather observations for NSW | Other Formats
Station Details ID: 072161 Name: CABRAMURRA SMHEA AWS Lat: -35.94 Lon: 148.38 Height: 1482.4 m
Data from the previous 72 hours. | See also: Recent months at Cabramurra
Date/Time
EST
Temp
°C
App
Temp
°C
Dew
Point
°C
Rel
Hum
%
Delta-T
°C
Wind Press
QNH
hPa
Press
MSL
hPa
Rain since
9am
mm
Dir  Spd
km/h
Gust
km/h
Spd
kts
Gust
kts
01/12:30am 6.0 2.6 5.7 98 0.1 N 13 20 7 11 - - 0.0
01/12:00am 6.3 2.5 5.7 96 0.3 N 15 20 8 11 - - 0.0
 
Date/Time
EST
Temp
°C
App
Temp
°C
Dew
Point
°C
Rel
Hum
%
Delta-T
°C
Wind Press
QNH
hPa
Press
MSL
hPa
Rain since
9am
mm
Dir  Spd
km/h
Gust
km/h
Spd
kts
Gust
kts
30/11:30pm 6.2 2.1 6.1 99 0.0 N 17 22 9 12 - - 0.0
30/11:00pm 6.0 2.2 5.9 99 0.0 N 15 20 8 11 - - 0.0
30/10:30pm 5.9 2.5 5.8 99 0.0 N 13 15 7 8 - - 0.0
30/10:00pm 5.9 3.2 5.8 99 0.0 N 9 13 5 7 - - 0.0
30/09:30pm 6.0 3.4 5.9 99 0.0 N 9 13 5 7 - - 0.0
30/09:00pm 6.2 3.6 5.9 98 0.1 N 9 11 5 6 - - 0.0
30/08:30pm 7.0 3.5 5.6 91 0.7 N 13 17 7 9 - - 0.0
30/08:00pm 7.4 4.9 6.5 94 0.4 NNW 9 15 5 8 - - 0.0
30/07:30pm 7.5 4.5 6.1 91 0.7 NNW 11 15 6 8 - - 0.0
30/07:00pm 7.4 5.6 7.3 99 0.1 NNW 6 9 3 5 - - 0.0
30/06:30pm 7.3 5.3 7.2 99 0.1 NNW 7 11 4 6 - - 0.0
30/06:00pm 7.4 5.6 7.0 97 0.2 N 6 7 3 4 - - 0.0
30/05:30pm 7.5 6.0 6.6 94 0.5 WNW 4 7 2 4 - - 0.0
30/05:00pm 9.4 7.3 6.8 84 1.3 WNW 7 11 4 6 - - 0.0
30/04:30pm 10.1 7.9 6.3 77 1.9 NW 7 11 4 6 - - 0.0
30/04:00pm 10.3 7.0 6.5 77 1.9 NW 13 19 7 10 - - 0.0
30/03:30pm 10.4 7.9 6.4 76 2.0 NW 9 15 5 8 - - 0.0
30/03:00pm 10.2 7.0 6.7 79 1.8 NW 13 19 7 10 - - 0.0
30/02:30pm 10.9 8.0 6.6 75 2.2 NW 11 17 6 9 - - 0.0
30/02:00pm 10.3 7.8 6.5 77 1.9 NW 9 17 5 9 - - 0.0
30/01:30pm 11.3 8.9 7.2 76 2.1 NW 9 15 5 8 - - 0.0
30/01:00pm 10.2 6.9 4.8 69 2.7 NW 11 17 6 9 - - 0.0
30/12:30pm 11.2 8.7 6.5 73 2.4 NW 9 15 5 8 - - 0.0
30/12:00pm 10.7 7.4 4.8 67 2.9 NW 11 15 6 8 - - 0.0
30/11:30am 10.1 7.2 4.7 69 2.6 NW 9 15 5 8 - - 0.0
30/11:00am 9.9 6.9 4.3 68 2.7 NW 9 13 5 7 - - 0.0
30/10:30am 9.3 6.3 3.9 69 2.6 NW 9 13 5 7 - - 0.0
30/10:00am 9.3 6.8 4.5 72 2.3 WNW 7 9 4 5 - - 0.0
30/09:30am 8.6 7.2 3.4 70 2.4 CALM 0 0 0 0 - - 0.0
30/09:00am 8.0 6.6 3.3 72 2.2 CALM 0 0 0 0 - - 0.0
30/08:30am 7.6 6.2 3.3 74 2.0 CALM 0 0 0 0 - - 0.0
30/08:00am 6.6 5.2 3.4 80 1.5 CALM 0 0 0 0 - - 0.0
30/07:30am 6.0 4.6 3.8 86 1.0 CALM 0 0 0 0 - - 0.0
30/07:00am 5.7 4.3 3.7 87 0.9 CALM 0 0 0 0 - - 0.0
30/06:30am 5.9 3.4 3.9 87 0.9 SE 6 7 3 4 - - 0.0
30/06:00am 5.9 3.2 3.9 87 0.9 SE 7 9 4 5 - - 0.0
30/05:30am 5.6 2.9 3.8 88 0.8 ESE 7 9 4 5 - - 0.0
30/05:00am 4.9 1.4 3.4 90 0.7 ESE 11 13 6 7 - - 0.0
30/04:30am 5.1 1.2 3.6 90 0.7 ESE 13 15 7 8 - - 0.0
30/04:00am 4.8 0.9 3.5 91 0.6 ESE 13 17 7 9 - - 0.0
30/03:30am 4.8 0.9 3.6 92 0.5 ESE 13 20 7 11 - - 0.0
30/03:00am 4.6 0.7 3.4 92 0.5 ESE 13 20 7 11 - - 0.0
30/02:30am 4.8 0.9 3.5 91 0.6 E 13 19 7 10 - - 0.0
30/02:00am 5.1 0.6 4.1 93 0.5 E 17 22 9 12 - - 0.0
30/01:30am 5.0 0.1 4.1 94 0.4 E 19 28 10 15 - - 0.0
30/01:00am 5.2 0.1 4.0 92 0.6 E 20 28 11 15 - - 0.0
30/12:30am 5.4 0.6 4.4 93 0.5 E 19 28 10 15 - - 0.0
30/12:00am 5.4 0.4 4.8 96 0.3 E 20 28 11 15 - - 0.0
 
Date/Time
EST
Temp
°C
App
Temp
°C
Dew
Point
°C
Rel
Hum
%
Delta-T
°C
Wind Press
QNH
hPa
Press
MSL
hPa
Rain since
9am
mm
Dir  Spd
km/h
Gust
km/h
Spd
kts
Gust
kts
29/11:30pm 5.8 0.9 5.1 95 0.3 ESE 20 28 11 15 - - 0.0
29/11:00pm 5.9 -0.1 5.3 96 0.3 ESE 26 33 14 18 - - 0.0
29/10:30pm 5.9 0.3 5.6 98 0.1 ESE 24 32 13 17 - - 0.0
29/10:00pm 6.1 1.0 6.0 99 0.0 E 22 28 12 15 - - 0.0
29/09:30pm 6.3 0.5 6.2 99 0.0 ESE 26 35 14 19 - - 0.0
29/09:00pm 6.8 2.8 6.7 99 0.1 ESE 17 28 9 15 - - 0.0
29/08:30pm 5.4 3.2 5.3 99 0.0 SE 6 11 3 6 - - 0.0
29/08:00pm 5.9 3.2 5.8 99 0.0 S 9 13 5 7 - - 0.0
29/07:30pm 6.1 4.0 6.0 99 0.0 S 6 7 3 4 - - 0.0
29/07:00pm 6.1 4.0 6.0 99 0.0 SSW 6 9 3 5 - - 0.0
29/06:30pm 6.2 4.0 6.1 99 0.0 SSW 7 11 4 6 - - 0.0
29/06:00pm 6.3 3.7 6.2 99 0.0 SSW 9 13 5 7 - - 0.0
29/05:30pm 6.5 4.3 6.4 99 0.0 SSW 7 9 4 5 - - 0.0
29/05:00pm 6.5 4.0 6.4 99 0.0 WSW 9 15 5 8 - - 0.0
29/04:30pm 6.8 4.3 6.7 99 0.1 WSW 9 15 5 8 - - 0.0
29/04:00pm 7.4 5.1 7.3 99 0.1 W 9 15 5 8 - - 0.0
29/03:30pm 7.9 5.0 6.7 92 0.6 WNW 11 17 6 9 - - 0.0
29/03:00pm 9.5 6.4 7.3 86 1.1 WNW 13 17 7 9 - - 0.0
29/02:30pm 9.6 6.4 6.7 82 1.5 WNW 13 20 7 11 - - 0.0
29/02:00pm 10.0 7.1 6.3 78 1.9 WNW 11 17 6 9 - - 0.0
29/01:30pm 10.3 7.8 6.5 77 1.9 NNW 9 13 5 7 - - 0.0
29/01:00pm 10.6 8.3 7.3 80 1.7 NNW 9 13 5 7 - - 0.0
29/12:30pm 10.1 7.5 6.3 77 1.9 NNW 9 13 5 7 - - 0.0
29/12:00pm 10.2 7.9 5.8 74 2.2 WNW 7 11 4 6 - - 0.0
29/11:30am 10.3 8.1 5.5 72 2.4 WSW 6 9 3 5 - - 0.0
29/11:00am 10.0 8.5 4.8 70 2.6 WSW 2 7 1 4 - - 0.0
29/10:30am 9.1 5.9 3.3 67 2.7 WSW 9 15 5 8 - - 0.0
29/10:00am 8.8 4.0 2.4 64 3.0 SW 17 20 9 11 - - 0.0
29/09:30am 8.6 4.6 0.6 57 3.5 SW 11 15 6 8 - - 0.0
29/09:00am 8.6 4.8 -0.7 52 4.0 SSW 9 11 5 6 - - 0.0
29/08:30am 8.0 3.5 -3.2 45 4.5 SSW 11 13 6 7 - - 0.0
29/08:00am 7.3 2.6 -5.4 40 4.8 S 11 13 6 7 - - 0.0
29/07:30am 7.5 2.7 -5.9 38 5.0 SSE 11 13 6 7 - - 0.0
29/07:00am 5.3 2.7 -5.1 47 3.9 CALM 0 0 0 0 - - 0.0
29/06:30am 5.3 1.5 -5.1 47 3.9 SSW 6 7 3 4 - - 0.0
29/06:00am 3.4 -0.3 -3.2 62 2.5 S 7 13 4 7 - - 0.0
29/05:30am 5.9 0.9 -4.0 49 3.8 S 13 15 7 8 - - 0.0
29/05:00am 1.4 -2.3 0.2 92 0.5 S 9 13 5 7 - - 0.0
29/04:30am 1.6 -2.5 0.0 89 0.6 S 11 15 6 8 - - 0.0
29/04:00am 1.3 -1.8 1.2 99 0.0 WNW 7 11 4 6 - - 0.0
29/03:30am 4.5 0.1 -2.6 60 2.8 SSW 11 17 6 9 - - 0.0
29/03:00am 4.1 -0.9 -1.1 69 2.1 S 15 17 8 9 - - 0.0
29/02:30am 2.4 -1.9 0.8 89 0.7 S 13 15 7 8 - - 0.0
29/02:00am 1.3 -1.8 1.2 99 0.0 SSW 7 11 4 6 - - 0.0
29/01:30am 2.0 -1.0 1.9 99 0.0 SSW 7 11 4 6 - - 0.0
29/01:00am 1.2 -2.7 1.1 99 0.0 SW 11 15 6 8 - - 0.0
29/12:30am 2.0 -1.4 1.9 99 0.0 SW 9 11 5 6 - - 0.0
29/12:00am 1.2 -1.8 1.1 99 0.0 SSW 6 7 3 4 - - 0.0
 
Date/Time
EST
Temp
°C
App
Temp
°C
Dew
Point
°C
Rel
Hum
%
Delta-T
°C
Wind Press
QNH
hPa
Press
MSL
hPa
Rain since
9am
mm
Dir  Spd
km/h
Gust
km/h
Spd
kts
Gust
kts
28/11:30pm 2.5 -0.8 2.4 99 0.0 SSE 9 13 5 7 - - 0.0
28/11:00pm 2.3 -1.0 2.2 99 0.0 S 9 11 5 6 - - 0.0
28/10:30pm 2.3 -0.7 2.2 99 0.0 SW 7 11 4 6 - - 0.0
28/10:00pm 2.5 -0.8 2.4 99 0.0 WSW 9 11 5 6 - - 0.0
28/09:30pm 2.4 -1.3 2.3 99 0.0 SW 11 13 6 7 - - 0.0
28/09:00pm 3.0 -1.4 2.9 99 0.0 S 15 19 8 10 - - 0.0
28/08:30pm 3.3 -0.8 2.4 94 0.4 SSW 13 17 7 9 - - 0.0
28/08:00pm 3.6 0.6 2.3 91 0.6 SW 7 13 4 7 - - 0.0
28/07:30pm 3.5 2.0 2.9 96 0.3 CALM 0 0 0 0 - - 0.0
28/07:00pm 4.1 2.2 0.3 76 1.6 CALM 0 6 0 3 - - 0.0
28/06:30pm 3.6 2.1 3.0 96 0.3 CALM 0 0 0 0 - - 0.0
28/06:00pm 4.0 2.5 3.1 94 0.4 CALM 0 0 0 0 - - 0.0
28/05:30pm 4.7 1.5 3.0 89 0.8 W 9 11 5 6 - - 0.0
28/05:00pm 5.8 2.4 4.1 89 0.8 WNW 11 17 6 9 - - 0.0
28/04:30pm 6.8 3.7 3.6 80 1.5 WNW 9 13 5 7 - - 0.0
28/04:00pm 7.5 4.4 3.4 75 1.9 WNW 9 11 5 6 - - 0.0
28/03:30pm 8.1 4.2 3.2 71 2.3 WNW 13 17 7 9 - - 0.0
28/03:00pm 8.9 5.8 3.7 70 2.5 WNW 9 15 5 8 - - 0.0
28/02:30pm 9.7 6.5 3.2 64 3.1 NW 9 13 5 7 - - 0.0
28/02:00pm 9.4 6.2 2.9 64 3.0 NW 9 13 5 7 - - 0.0
28/01:30pm 8.8 5.4 4.0 72 2.3 WNW 11 15 6 8 - - 0.0
28/01:00pm 8.7 5.7 3.9 72 2.3 NNW 9 13 5 7 - - 0.0
28/12:30pm 8.4 5.3 3.7 72 2.2 NW 9 11 5 6 - - 0.0
28/12:00pm 8.2 5.4 3.3 71 2.3 NNW 7 11 4 6 - - 0.0
28/11:30am 8.4 5.6 3.1 69 2.5 NW 7 9 4 5 - - 0.0
28/11:00am 7.6 5.2 2.1 68 2.5 W 4 11 2 6 - - 0.0
28/10:30am 6.7 3.5 0.8 66 2.6 S 7 13 4 7 - - 0.0
28/10:00am 6.4 1.8 1.3 70 2.2 SE 15 26 8 14 - - 0.0
28/09:30am 5.2 0.0 0.0 69 2.2 SE 17 28 9 15 - - 0.0
28/09:00am 4.3 -1.5 -1.5 66 2.3 SE 19 30 10 16 - - 0.0
28/08:30am 3.4 -2.2 -2.5 65 2.3 SE 17 24 9 13 - - 0.0
28/08:00am 3.1 -1.0 -3.0 64 2.3 SE 9 24 5 13 - - 0.0
28/07:30am 2.4 -2.2 -3.7 64 2.3 E 11 20 6 11 - - 0.0
28/07:00am 2.4 -0.9 -4.6 60 2.7 WNW 4 9 2 5 - - 0.0
28/06:30am 2.0 -1.4 -4.9 60 2.6 NE 4 7 2 4 - - 0.0
28/06:00am 1.9 -3.2 -4.8 61 2.5 ESE 13 19 7 10 - - 0.0
28/05:30am 2.7 -0.7 -4.9 57 2.9 S 4 13 2 7 - - 0.0
28/05:00am 0.9 -1.7 -5.3 63 2.2 CALM 0 0 0 0 - - 0.0
28/04:30am 1.7 -2.3 -5.9 57 2.8 SE 7 11 4 6 - - 0.0
28/04:00am 1.5 -2.5 -5.2 61 2.5 SSW 7 11 4 6 - - 0.0
28/03:30am 1.5 -3.2 -5.2 61 2.5 S 11 13 6 7 - - 0.0
28/03:00am 0.9 -2.8 -4.1 69 1.9 SSW 6 9 3 5 - - 0.0
28/02:30am 1.6 -2.7 -4.5 64 2.3 SSE 9 11 5 6 - - 0.0
28/02:00am 1.2 -2.5 -3.3 72 1.7 SSE 7 9 4 5 - - 0.0
28/01:30am 1.0 -3.0 -2.6 77 1.4 SE 9 11 5 6 - - 0.0
28/01:00am 0.5 -1.6 -0.9 90 0.6 CALM 0 0 0 0 - - 0.0

Other Formats:

Comma delimited format used in spreadsheet applications
http://www.bom.gov.au/fwo/IDN60801/IDN60801.95916.axf

JavaScript Object Notation format (JSON) in row-major order
http://www.bom.gov.au/fwo/IDN60801/IDN60801.95916.json